createdAt,value
2022-12-29T00:00:16.762Z,9.70
2022-12-29T00:02:43.690Z,9.80
2022-12-29T00:05:10.595Z,9.70
2022-12-29T00:07:37.486Z,9.70
2022-12-29T00:10:04.740Z,9.70
2022-12-29T00:12:51.537Z,9.80
2022-12-29T00:15:37.144Z,9.80
2022-12-29T00:18:04.124Z,9.80
2022-12-29T00:20:52.184Z,9.90
2022-12-29T00:23:37.502Z,9.90
2022-12-29T00:26:23.282Z,10.00
2022-12-29T00:29:10.129Z,10.00
2022-12-29T00:31:55.484Z,10.00
2022-12-29T00:34:40.757Z,10.10
2022-12-29T00:37:07.686Z,10.20
2022-12-29T00:39:53.000Z,10.10
2022-12-29T00:42:38.453Z,10.20
2022-12-29T00:45:05.959Z,10.20
2022-12-29T00:47:32.680Z,10.20
2022-12-29T00:49:59.459Z,10.20
2022-12-29T00:52:27.620Z,10.20
2022-12-29T00:54:54.396Z,10.20
2022-12-29T00:57:21.205Z,10.20
2022-12-29T00:59:48.087Z,10.20
2022-12-29T01:02:16.521Z,10.20
2022-12-29T01:04:43.600Z,10.20
2022-12-29T01:07:10.377Z,10.20
2022-12-29T01:09:56.656Z,10.20
2022-12-29T01:12:41.440Z,10.20
2022-12-29T01:15:12.220Z,10.20
2022-12-29T01:17:39.387Z,10.20
2022-12-29T01:20:07.142Z,10.20
2022-12-29T01:22:34.147Z,10.20
2022-12-29T01:25:00.974Z,10.20
2022-12-29T01:27:27.794Z,10.30
2022-12-29T01:29:54.556Z,10.30
2022-12-29T01:32:21.462Z,10.20
2022-12-29T01:34:48.249Z,10.30
2022-12-29T01:37:15.051Z,10.20
2022-12-29T01:39:42.065Z,10.20
2022-12-29T01:42:19.625Z,10.30
2022-12-29T01:44:56.424Z,10.20
2022-12-29T01:47:32.250Z,10.30
2022-12-29T01:50:06.628Z,10.30
2022-12-29T01:52:37.680Z,10.40
2022-12-29T01:55:06.490Z,10.30
2022-12-29T01:57:37.672Z,10.40
2022-12-29T02:00:10.607Z,10.40
2022-12-29T02:02:45.700Z,10.40
2022-12-29T02:05:20.863Z,10.50
2022-12-29T02:07:48.727Z,10.40
2022-12-29T02:10:16.002Z,10.40
2022-12-29T02:12:43.143Z,10.50
2022-12-29T02:15:10.276Z,10.50
2022-12-29T02:18:00.911Z,10.50
2022-12-29T02:20:59.600Z,10.50
2022-12-29T02:23:54.125Z,10.60
2022-12-29T02:26:28.119Z,10.60
2022-12-29T02:29:18.461Z,10.60
2022-12-29T02:32:02.523Z,10.60
2022-12-29T02:34:55.231Z,10.60
2022-12-29T02:37:24.959Z,10.70
2022-12-29T02:39:56.089Z,10.70
2022-12-29T02:42:39.861Z,10.70
2022-12-29T02:45:18.767Z,10.70
2022-12-29T02:48:03.706Z,10.60
2022-12-29T02:50:39.266Z,10.60
2022-12-29T02:53:10.132Z,10.60
2022-12-29T02:55:36.943Z,10.60
2022-12-29T02:58:09.572Z,10.70
2022-12-29T03:01:06.924Z,10.70
2022-12-29T03:03:54.470Z,10.70
2022-12-29T03:06:52.826Z,10.80
2022-12-29T03:09:37.505Z,10.80
2022-12-29T03:12:50.035Z,10.80
2022-12-29T03:15:42.509Z,10.80
2022-12-29T03:18:21.649Z,10.80
2022-12-29T03:21:17.440Z,10.90
2022-12-29T03:23:49.373Z,10.90
2022-12-29T03:26:19.609Z,11.00
2022-12-29T03:28:55.041Z,11.00
2022-12-29T03:31:26.091Z,11.10
2022-12-29T03:33:56.382Z,11.00
2022-12-29T03:36:35.449Z,11.00
2022-12-29T03:39:13.032Z,10.90
2022-12-29T03:41:43.909Z,10.90
2022-12-29T03:44:11.793Z,10.80
2022-12-29T03:46:38.888Z,10.70
2022-12-29T03:49:05.854Z,10.70
2022-12-29T03:51:32.657Z,10.60
2022-12-29T03:53:59.512Z,10.60
2022-12-29T03:56:26.309Z,10.60
2022-12-29T03:58:54.007Z,10.50
2022-12-29T04:01:32.860Z,10.50
2022-12-29T04:03:59.709Z,10.40
2022-12-29T04:06:26.596Z,10.40
2022-12-29T04:09:03.873Z,10.40
2022-12-29T04:11:34.635Z,10.30
2022-12-29T04:14:03.559Z,10.30
2022-12-29T04:16:32.178Z,10.30
2022-12-29T04:18:58.975Z,10.30
2022-12-29T04:21:25.950Z,10.30
2022-12-29T04:23:52.828Z,10.30
2022-12-29T04:26:19.770Z,10.30
2022-12-29T04:28:56.165Z,10.20
2022-12-29T04:31:39.428Z,10.20
2022-12-29T04:34:07.250Z,10.30
2022-12-29T04:36:34.104Z,10.30
2022-12-29T04:39:01.695Z,10.40
2022-12-29T04:41:28.925Z,10.40
2022-12-29T04:43:55.733Z,10.40
2022-12-29T04:46:41.409Z,10.30
2022-12-29T04:49:11.846Z,10.40
2022-12-29T04:51:58.810Z,10.40
2022-12-29T04:54:25.929Z,10.50
2022-12-29T04:57:04.668Z,10.60
2022-12-29T04:59:31.561Z,10.60
2022-12-29T05:02:00.165Z,10.70
2022-12-29T05:04:27.167Z,10.80
2022-12-29T05:06:53.956Z,10.80
2022-12-29T05:09:20.920Z,10.80
2022-12-29T05:11:47.722Z,10.90
2022-12-29T05:14:14.777Z,10.90
2022-12-29T05:16:42.104Z,10.90
2022-12-29T05:19:09.659Z,11.00
2022-12-29T05:21:36.437Z,11.00
2022-12-29T05:24:03.588Z,11.10
2022-12-29T05:26:30.559Z,11.10
2022-12-29T05:29:11.956Z,11.20
2022-12-29T05:31:38.975Z,11.20
2022-12-29T05:34:06.881Z,11.10
2022-12-29T05:36:37.650Z,11.20
2022-12-29T05:39:06.240Z,11.30
2022-12-29T05:41:35.287Z,11.30
2022-12-29T05:44:40.276Z,11.40
2022-12-29T05:47:23.521Z,11.40
2022-12-29T05:50:09.221Z,11.40
2022-12-29T05:52:54.634Z,11.40
2022-12-29T05:55:21.674Z,11.40
2022-12-29T05:57:51.245Z,11.50
2022-12-29T06:00:18.193Z,11.40
2022-12-29T06:02:47.113Z,11.50
2022-12-29T06:05:15.946Z,11.50
2022-12-29T06:07:42.870Z,11.50
2022-12-29T06:10:10.048Z,11.50
2022-12-29T06:12:44.220Z,11.50
2022-12-29T06:15:11.502Z,11.40
2022-12-29T06:17:40.556Z,11.40
2022-12-29T06:20:08.806Z,11.40
2022-12-29T06:22:35.593Z,11.40
2022-12-29T06:25:05.153Z,11.40
2022-12-29T06:27:33.672Z,11.40
2022-12-29T06:30:00.999Z,11.40
2022-12-29T06:32:28.656Z,11.40
2022-12-29T06:35:00.708Z,11.40
2022-12-29T06:37:27.616Z,11.40
2022-12-29T06:39:54.404Z,11.40
2022-12-29T06:42:21.748Z,11.40
2022-12-29T06:45:10.287Z,11.40
2022-12-29T06:47:37.299Z,11.50
2022-12-29T06:50:04.348Z,11.40
2022-12-29T06:52:31.109Z,11.50
2022-12-29T06:54:57.861Z,11.50
2022-12-29T06:57:24.636Z,11.60
2022-12-29T06:59:51.381Z,11.60
2022-12-29T07:02:20.471Z,11.60
2022-12-29T07:04:47.432Z,11.60
2022-12-29T07:07:14.215Z,11.60
2022-12-29T07:09:41.125Z,11.60
2022-12-29T07:12:07.936Z,11.60
2022-12-29T07:14:42.330Z,11.60
2022-12-29T07:17:09.932Z,11.50
2022-12-29T07:19:36.795Z,11.50
2022-12-29T07:22:03.655Z,11.50
2022-12-29T07:24:30.784Z,11.50
2022-12-29T07:26:57.766Z,11.50
2022-12-29T07:29:25.161Z,11.50
2022-12-29T07:31:52.077Z,11.50
2022-12-29T07:34:18.903Z,11.40
2022-12-29T07:36:45.672Z,11.40
2022-12-29T07:39:12.622Z,11.40
2022-12-29T07:41:39.427Z,11.40
2022-12-29T07:44:09.898Z,11.40
2022-12-29T07:46:58.819Z,11.40
2022-12-29T07:49:26.283Z,11.30
2022-12-29T07:51:53.967Z,11.20
2022-12-29T07:54:21.262Z,11.20
2022-12-29T07:56:48.042Z,11.20
2022-12-29T07:59:15.017Z,11.20
2022-12-29T08:01:41.921Z,11.20
2022-12-29T08:04:08.975Z,11.20
2022-12-29T08:06:35.951Z,11.10
2022-12-29T08:09:11.306Z,11.20
2022-12-29T08:11:41.667Z,11.20
2022-12-29T08:14:08.406Z,11.20
2022-12-29T08:16:35.627Z,11.10
2022-12-29T08:19:03.085Z,11.10
2022-12-29T08:21:29.850Z,11.10
2022-12-29T08:23:56.974Z,11.10
2022-12-29T08:26:24.193Z,11.20
2022-12-29T08:28:54.073Z,11.20
2022-12-29T08:31:20.978Z,11.20
2022-12-29T08:33:47.928Z,11.20
2022-12-29T08:36:14.701Z,11.20
2022-12-29T08:38:41.499Z,11.20
2022-12-29T08:41:08.267Z,11.30
2022-12-29T08:43:35.088Z,11.30
2022-12-29T08:46:01.844Z,11.30
2022-12-29T08:48:28.673Z,11.30
2022-12-29T08:50:55.493Z,11.30
2022-12-29T08:53:22.276Z,11.30
2022-12-29T08:56:03.708Z,11.20
2022-12-29T08:58:35.499Z,11.30
2022-12-29T09:01:02.369Z,11.30
2022-12-29T09:04:12.168Z,11.30
2022-12-29T09:06:17.752Z,11.30
2022-12-29T09:08:45.007Z,11.30
2022-12-29T09:11:15.546Z,11.30
2022-12-29T09:13:42.470Z,11.20
2022-12-29T09:16:09.749Z,11.20
2022-12-29T09:18:36.805Z,11.00
2022-12-29T09:21:05.861Z,10.80
2022-12-29T09:23:33.098Z,10.60
2022-12-29T09:26:00.150Z,10.50
2022-12-29T09:28:27.315Z,10.40
2022-12-29T09:30:54.170Z,10.30
2022-12-29T09:33:21.043Z,10.20
2022-12-29T09:35:53.189Z,10.20
2022-12-29T09:38:21.105Z,10.20
2022-12-29T09:40:53.290Z,10.20
2022-12-29T09:43:57.297Z,10.20
2022-12-29T09:46:47.036Z,10.20
2022-12-29T09:49:31.203Z,10.30
2022-12-29T09:52:04.755Z,10.30
2022-12-29T09:54:39.572Z,10.40
2022-12-29T09:57:17.185Z,10.40
2022-12-29T09:59:46.008Z,10.40
2022-12-29T10:02:29.854Z,10.50
2022-12-29T10:04:56.941Z,10.50
2022-12-29T10:07:52.297Z,10.50
2022-12-29T10:10:46.628Z,10.50
2022-12-29T10:13:25.781Z,10.60
2022-12-29T10:16:15.669Z,10.60
2022-12-29T10:19:03.067Z,10.60
2022-12-29T10:21:53.375Z,10.70
2022-12-29T10:24:22.443Z,10.80
2022-12-29T10:26:51.986Z,10.90
2022-12-29T10:29:21.651Z,11.00
2022-12-29T10:32:04.000Z,11.00
2022-12-29T10:34:47.404Z,11.00
2022-12-29T10:37:41.621Z,11.00
2022-12-29T10:40:25.626Z,11.10
2022-12-29T10:42:58.406Z,11.10
2022-12-29T10:45:30.510Z,11.20
2022-12-29T10:48:11.945Z,11.20
2022-12-29T10:50:43.706Z,11.20
2022-12-29T10:53:22.061Z,11.30
2022-12-29T10:55:49.754Z,11.30
2022-12-29T10:58:19.506Z,11.40
2022-12-29T11:00:53.074Z,11.40
2022-12-29T11:04:00.537Z,11.50
2022-12-29T11:06:30.161Z,11.50
2022-12-29T11:09:02.153Z,11.50
2022-12-29T11:11:35.940Z,11.50
2022-12-29T11:14:15.395Z,11.50
2022-12-29T11:16:42.817Z,11.40
2022-12-29T11:19:26.380Z,11.40
2022-12-29T11:21:53.593Z,11.40
2022-12-29T11:24:24.588Z,11.40
2022-12-29T11:26:57.985Z,11.40
2022-12-29T11:29:28.024Z,11.40
2022-12-29T11:31:59.051Z,11.40
2022-12-29T11:34:34.328Z,11.30
2022-12-29T11:37:04.695Z,11.30
2022-12-29T11:39:39.418Z,11.30
2022-12-29T11:42:13.330Z,11.30
2022-12-29T11:44:45.318Z,11.30
2022-12-29T11:47:27.635Z,11.30
2022-12-29T11:49:58.980Z,11.30
2022-12-29T11:52:29.187Z,11.30
2022-12-29T11:54:57.494Z,11.20
2022-12-29T11:57:26.179Z,11.30
2022-12-29T11:59:56.382Z,11.30
2022-12-29T12:02:23.345Z,11.30
2022-12-29T12:04:54.574Z,11.30
2022-12-29T12:07:41.906Z,11.20
2022-12-29T12:10:17.711Z,11.30
2022-12-29T12:13:06.698Z,11.30
2022-12-29T12:15:46.682Z,11.30
2022-12-29T12:18:29.327Z,11.30
2022-12-29T12:21:01.964Z,11.30
2022-12-29T12:23:59.108Z,11.30
2022-12-29T12:26:35.020Z,11.30
2022-12-29T12:29:23.499Z,11.30
2022-12-29T12:31:58.725Z,11.30
2022-12-29T12:34:42.017Z,11.20
2022-12-29T12:37:25.975Z,11.20
2022-12-29T12:40:29.594Z,11.20
2022-12-29T12:43:07.366Z,11.20
2022-12-29T12:45:58.564Z,11.20
2022-12-29T12:49:12.906Z,11.20
2022-12-29T12:52:05.698Z,11.20
2022-12-29T12:54:44.728Z,11.20
2022-12-29T12:57:14.581Z,11.20
2022-12-29T13:00:14.004Z,11.20
2022-12-29T13:03:18.618Z,11.20
2022-12-29T13:06:16.957Z,11.20
2022-12-29T13:09:07.243Z,11.10
2022-12-29T13:11:52.769Z,11.10
2022-12-29T13:14:25.237Z,11.10
2022-12-29T13:17:02.446Z,11.10
2022-12-29T13:19:46.931Z,11.00
2022-12-29T13:22:16.492Z,11.10
2022-12-29T13:25:08.883Z,11.00
2022-12-29T13:27:38.489Z,11.00
2022-12-29T13:30:19.306Z,10.90
2022-12-29T13:33:24.723Z,11.00
2022-12-29T13:36:22.096Z,11.00
2022-12-29T13:39:02.350Z,11.00
2022-12-29T13:41:36.619Z,11.00
2022-12-29T13:44:06.276Z,11.00
2022-12-29T13:46:40.051Z,10.90
2022-12-29T13:49:17.667Z,11.00
2022-12-29T13:51:50.782Z,10.90
2022-12-29T13:54:56.694Z,10.90
2022-12-29T13:57:59.292Z,10.90
2022-12-29T14:00:31.190Z,10.90
2022-12-29T14:03:23.861Z,10.90
2022-12-29T14:06:26.162Z,10.90
2022-12-29T14:09:05.445Z,10.80
2022-12-29T14:11:37.734Z,10.80
2022-12-29T14:14:24.747Z,10.80
2022-12-29T14:16:52.456Z,10.80
2022-12-29T14:19:30.304Z,10.80
2022-12-29T14:21:59.244Z,10.80
2022-12-29T14:24:35.650Z,10.80
2022-12-29T14:27:11.690Z,10.80
2022-12-29T14:29:41.558Z,10.70
2022-12-29T14:32:26.623Z,10.70
2022-12-29T14:34:54.776Z,10.70
2022-12-29T14:37:36.297Z,10.70
2022-12-29T14:40:27.029Z,10.70
2022-12-29T14:42:56.638Z,10.70
2022-12-29T14:45:26.180Z,10.80
2022-12-29T14:47:54.570Z,10.80
2022-12-29T14:50:31.283Z,10.70
2022-12-29T14:53:05.005Z,10.70
2022-12-29T14:55:50.690Z,10.70
2022-12-29T14:58:29.451Z,10.70
2022-12-29T15:00:57.410Z,10.70
2022-12-29T15:03:39.057Z,10.70
2022-12-29T15:06:10.241Z,10.70
2022-12-29T15:09:00.054Z,10.70
2022-12-29T15:11:46.716Z,10.70
2022-12-29T15:14:48.775Z,10.70
2022-12-29T15:17:31.608Z,10.60
2022-12-29T15:20:01.319Z,10.60
2022-12-29T15:22:28.783Z,10.70
2022-12-29T15:24:56.302Z,10.60
2022-12-29T15:27:26.067Z,10.60
2022-12-29T15:30:04.532Z,10.60
2022-12-29T15:32:41.773Z,10.60
2022-12-29T15:35:25.787Z,10.60
2022-12-29T15:37:52.686Z,10.60
2022-12-29T15:40:28.923Z,10.50
2022-12-29T15:43:15.485Z,10.50
2022-12-29T15:45:42.588Z,10.50
2022-12-29T15:48:19.270Z,10.50
2022-12-29T15:50:46.994Z,10.50
2022-12-29T15:53:29.369Z,10.50
2022-12-29T15:56:06.333Z,10.50
2022-12-29T15:58:49.397Z,10.50
2022-12-29T16:01:31.816Z,10.40
2022-12-29T16:04:00.557Z,10.40
2022-12-29T16:06:45.325Z,10.40
2022-12-29T16:09:18.410Z,10.40
2022-12-29T16:11:53.957Z,10.40
2022-12-29T16:14:29.331Z,10.40
2022-12-29T16:16:59.966Z,10.40
2022-12-29T16:19:38.479Z,10.40
2022-12-29T16:22:12.837Z,10.40
2022-12-29T16:24:41.214Z,10.30
2022-12-29T16:27:15.609Z,10.30
2022-12-29T16:29:42.510Z,10.30
2022-12-29T16:32:29.665Z,10.30
2022-12-29T16:35:10.371Z,10.20
2022-12-29T16:37:38.612Z,10.20
2022-12-29T16:40:27.085Z,10.20
2022-12-29T16:43:27.108Z,10.20
2022-12-29T16:45:54.231Z,10.20
2022-12-29T16:48:24.610Z,10.10
2022-12-29T16:50:51.777Z,10.10
2022-12-29T16:53:26.840Z,10.10
2022-12-29T16:55:55.459Z,10.00
2022-12-29T16:58:25.997Z,10.00
2022-12-29T17:00:56.796Z,10.00
2022-12-29T17:03:33.569Z,10.00
2022-12-29T17:06:00.489Z,10.00
2022-12-29T17:08:27.675Z,10.00
2022-12-29T17:11:15.058Z,10.00
2022-12-29T17:13:42.291Z,10.00
2022-12-29T17:16:11.565Z,10.00
2022-12-29T17:18:38.974Z,10.00
2022-12-29T17:21:05.809Z,10.00
2022-12-29T17:23:34.330Z,10.00
2022-12-29T17:26:02.213Z,10.00
2022-12-29T17:28:31.809Z,10.00
2022-12-29T17:31:02.814Z,10.00
2022-12-29T17:33:33.882Z,10.00
2022-12-29T17:36:00.636Z,10.00
2022-12-29T17:38:34.671Z,10.00
2022-12-29T17:41:01.581Z,10.00
2022-12-29T17:43:34.733Z,10.00
2022-12-29T17:46:06.159Z,10.00
2022-12-29T17:48:33.744Z,10.00
2022-12-29T17:51:00.570Z,10.00
2022-12-29T17:53:29.987Z,10.00
2022-12-29T17:55:57.154Z,9.90
2022-12-29T17:58:26.753Z,9.90
2022-12-29T18:00:59.532Z,9.70
2022-12-29T18:03:33.095Z,9.70
2022-12-29T18:06:00.848Z,9.60
2022-12-29T18:08:30.506Z,9.60
2022-12-29T18:10:57.455Z,9.50
2022-12-29T18:13:40.417Z,9.50
2022-12-29T18:16:13.469Z,9.50
2022-12-29T18:18:40.404Z,9.50
2022-12-29T18:21:21.701Z,9.40
2022-12-29T18:23:49.247Z,9.30
2022-12-29T18:26:31.529Z,9.20
2022-12-29T18:28:59.372Z,9.10
2022-12-29T18:31:32.205Z,8.90
2022-12-29T18:34:01.518Z,8.70
2022-12-29T18:36:29.206Z,8.60
2022-12-29T18:38:56.091Z,8.40
2022-12-29T18:41:25.435Z,8.30
2022-12-29T18:43:52.532Z,8.20
2022-12-29T18:46:23.137Z,8.10
2022-12-29T18:48:51.635Z,8.00
2022-12-29T18:51:21.550Z,7.90
2022-12-29T18:53:48.756Z,7.90
2022-12-29T18:56:15.583Z,7.90
2022-12-29T18:58:42.382Z,7.80
2022-12-29T19:01:20.141Z,7.80
2022-12-29T19:03:47.516Z,7.70
2022-12-29T19:06:14.594Z,7.70
2022-12-29T19:08:41.526Z,7.70
2022-12-29T19:11:08.312Z,7.60
2022-12-29T19:13:35.115Z,7.60
2022-12-29T19:16:01.934Z,7.60
2022-12-29T19:18:48.759Z,7.60
2022-12-29T19:21:16.286Z,7.60
2022-12-29T19:23:43.152Z,7.60
2022-12-29T19:26:28.432Z,7.60
2022-12-29T19:28:55.201Z,7.70
2022-12-29T19:31:22.101Z,7.70
2022-12-29T19:33:49.056Z,7.60
2022-12-29T19:36:16.863Z,7.60
2022-12-29T19:38:45.046Z,7.60
2022-12-29T19:41:13.012Z,7.70
2022-12-29T19:43:40.101Z,7.70
2022-12-29T19:46:11.386Z,7.70
2022-12-29T19:48:38.246Z,7.70
2022-12-29T19:51:10.895Z,7.80
2022-12-29T19:53:38.175Z,7.70
2022-12-29T19:56:07.590Z,7.70
2022-12-29T19:58:35.856Z,7.70
2022-12-29T20:01:11.330Z,7.70
2022-12-29T20:03:39.347Z,7.60
2022-12-29T20:06:07.537Z,7.60
2022-12-29T20:08:34.965Z,7.60
2022-12-29T20:11:12.008Z,7.70
2022-12-29T20:13:39.854Z,7.70
2022-12-29T20:16:10.708Z,7.70
2022-12-29T20:18:37.628Z,7.70
2022-12-29T20:21:07.737Z,7.70
2022-12-29T20:23:37.417Z,7.70
2022-12-29T20:26:05.210Z,7.70
2022-12-29T20:28:32.003Z,7.60
2022-12-29T20:31:03.229Z,7.60
2022-12-29T20:33:31.743Z,7.70
2022-12-29T20:36:10.743Z,7.70
2022-12-29T20:38:38.198Z,7.70
2022-12-29T20:41:04.997Z,7.70
2022-12-29T20:43:31.839Z,7.70
2022-12-29T20:45:58.686Z,7.70
2022-12-29T20:48:25.684Z,7.70
2022-12-29T20:50:52.798Z,7.70
2022-12-29T20:53:19.707Z,7.80
2022-12-29T20:55:46.501Z,7.70
2022-12-29T20:58:23.514Z,7.70
2022-12-29T21:00:51.056Z,7.70
2022-12-29T21:03:18.179Z,7.70
2022-12-29T21:05:45.059Z,7.70
2022-12-29T21:08:12.221Z,7.70
2022-12-29T21:10:39.218Z,7.70
2022-12-29T21:13:06.027Z,7.70
2022-12-29T21:15:33.144Z,7.70
2022-12-29T21:17:59.917Z,7.70
2022-12-29T21:20:31.540Z,7.70
2022-12-29T21:23:00.492Z,7.70
2022-12-29T21:25:36.827Z,7.70
2022-12-29T21:28:05.841Z,7.70
2022-12-29T21:30:33.990Z,7.70
2022-12-29T21:33:00.862Z,7.60
2022-12-29T21:35:28.055Z,7.60
2022-12-29T21:37:54.876Z,7.70
2022-12-29T21:40:24.580Z,7.70
2022-12-29T21:42:51.487Z,7.60
2022-12-29T21:45:27.598Z,7.60
2022-12-29T21:48:24.142Z,7.60
2022-12-29T21:51:16.292Z,7.60
2022-12-29T21:53:44.943Z,7.60
2022-12-29T21:56:16.425Z,7.60
2022-12-29T21:59:07.153Z,7.60
2022-12-29T22:01:55.396Z,7.60
2022-12-29T22:04:42.545Z,7.50
2022-12-29T22:07:30.375Z,7.50
2022-12-29T22:10:15.859Z,7.50
2022-12-29T22:12:57.781Z,7.50
2022-12-29T22:15:25.300Z,7.50
2022-12-29T22:17:53.162Z,7.40
2022-12-29T22:20:22.558Z,7.40
2022-12-29T22:22:49.394Z,7.40
2022-12-29T22:25:16.299Z,7.30
2022-12-29T22:27:43.655Z,7.30
2022-12-29T22:30:14.682Z,7.30
2022-12-29T22:32:41.719Z,7.30
2022-12-29T22:35:09.969Z,7.30
2022-12-29T22:37:38.685Z,7.30
2022-12-29T22:40:07.366Z,7.20
2022-12-29T22:42:34.248Z,7.20
2022-12-29T22:45:01.270Z,7.30
2022-12-29T22:47:28.356Z,7.20
2022-12-29T22:49:55.144Z,7.20
2022-12-29T22:52:21.965Z,7.20
2022-12-29T22:54:48.802Z,7.20
2022-12-29T22:57:15.643Z,7.20
2022-12-29T22:59:42.438Z,7.20
2022-12-29T23:02:09.357Z,7.20
2022-12-29T23:07:23.999Z,7.20
2022-12-29T23:09:50.855Z,7.20
2022-12-29T23:12:17.640Z,7.20
2022-12-29T23:14:44.470Z,7.20
2022-12-29T23:17:11.434Z,7.20
2022-12-29T23:19:38.240Z,7.30
2022-12-29T23:22:05.053Z,7.20
2022-12-29T23:24:31.852Z,7.20
2022-12-29T23:26:58.677Z,7.20
2022-12-29T23:29:25.461Z,7.20
2022-12-29T23:31:52.276Z,7.20
2022-12-29T23:34:19.277Z,7.20
2022-12-29T23:36:46.578Z,7.20
2022-12-29T23:39:24.233Z,7.20
2022-12-29T23:41:51.869Z,7.20
2022-12-29T23:44:18.781Z,7.20
2022-12-29T23:46:45.720Z,7.20
2022-12-29T23:49:12.653Z,7.20
2022-12-29T23:51:39.466Z,7.20
2022-12-29T23:54:06.572Z,7.20
2022-12-29T23:56:33.757Z,7.20
2022-12-29T23:59:03.560Z,7.10
